Time;durP1;ratioP1;P1;durP2;ratioP2;P2;SDS_P1;SDS_P2;PMS_P1;PMS_P2;Temp;Humidity;BMP_temperature;BMP_pressure;BME280_temperature;BME280_humidity;BME280_pressure;Samples;Min_cycle;Max_cycle;Signal;HPM_P1;HPM_P2
2023/12/12 00:01:32;;;;;;;23.47;21.80;;;;;;;;;;5010561;28;20542;-74
2023/12/12 00:03:59;;;;;;;22.67;20.83;;;;;;;;;;5011302;28;20514;-74
2023/12/12 00:06:26;;;;;;;21.87;20.07;;;;;;;;;;5010994;28;20460;-74
2023/12/12 00:08:53;;;;;;;21.77;20.17;;;;;;;;;;5010973;28;20441;-73
2023/12/12 00:11:21;;;;;;;22.90;20.77;;;;;;;;;;5010338;28;20440;-73
2023/12/12 00:13:48;;;;;;;21.20;19.40;;;;;;;;;;4991280;28;20446;-74
2023/12/12 00:16:15;;;;;;;23.33;21.03;;;;;;;;;;4991369;28;20813;-74
2023/12/12 00:18:42;;;;;;;22.83;20.50;;;;;;;;;;4991979;28;20884;-74
2023/12/12 00:21:09;;;;;;;22.10;20.50;;;;;;;;;;4994433;28;20895;-75
2023/12/12 00:23:36;;;;;;;21.87;20.07;;;;;;;;;;4995077;28;20476;-74
2023/12/12 00:26:03;;;;;;;21.00;19.43;;;;;;;;;;4995036;28;20484;-74
2023/12/12 00:28:31;;;;;;;22.13;20.07;;;;;;;;;;4994913;28;20449;-75
2023/12/12 00:30:58;;;;;;;23.20;21.13;;;;;;;;;;4994466;28;20444;-74
2023/12/12 00:33:25;;;;;;;22.13;20.23;;;;;;;;;;4995092;28;20500;-75
2023/12/12 00:35:52;;;;;;;22.33;20.43;;;;;;;;;;4994673;28;20473;-73
2023/12/12 00:38:19;;;;;;;23.37;21.50;;;;;;;;;;4994408;28;20937;-74
2023/12/12 00:40:53;;;;;;;23.10;21.53;;;;;;;;;;4994061;28;20992;-73
2023/12/12 00:43:19;;;;;;;24.13;22.40;;;;;;;;;;4994763;28;20432;-75
2023/12/12 00:45:48;;;;;;;26.23;24.17;;;;;;;;;;4994224;28;20508;-75
2023/12/12 00:48:15;;;;;;;25.50;23.43;;;;;;;;;;5012667;28;20518;-74
2023/12/12 00:50:42;;;;;;;25.73;23.63;;;;;;;;;;5013393;28;20473;-74
2023/12/12 00:53:09;;;;;;;24.23;22.43;;;;;;;;;;5014057;28;20494;-73
2023/12/12 00:55:36;;;;;;;25.77;23.20;;;;;;;;;;5000127;28;20453;-73
2023/12/12 00:58:02;;;;;;;24.57;22.30;;;;;;;;;;4994385;28;20441;-74
2023/12/12 01:00:29;;;;;;;24.30;22.60;;;;;;;;;;4993884;28;20539;-74
2023/12/12 01:02:58;;;;;;;24.00;22.30;;;;;;;;;;4993791;28;20453;-75
2023/12/12 01:05:25;;;;;;;25.10;23.00;;;;;;;;;;4994001;28;20860;-74
2023/12/12 01:07:52;;;;;;;26.43;23.90;;;;;;;;;;4994050;28;21035;-74
2023/12/12 01:10:19;;;;;;;24.53;22.00;;;;;;;;;;4994183;28;20972;-74
2023/12/12 01:12:46;;;;;;;25.53;23.37;;;;;;;;;;4993487;28;20446;-74
2023/12/12 01:15:13;;;;;;;25.13;22.90;;;;;;;;;;4993881;28;20488;-75
2023/12/12 01:17:39;;;;;;;25.87;24.27;;;;;;;;;;4993297;28;20972;-74
2023/12/12 01:20:09;;;;;;;23.47;21.80;;;;;;;;;;4993585;28;20993;-74
2023/12/12 01:22:36;;;;;;;27.60;24.90;;;;;;;;;;5004377;28;20482;-75
2023/12/12 01:25:03;;;;;;;27.40;25.27;;;;;;;;;;5013615;28;20475;-75
2023/12/12 01:27:30;;;;;;;29.13;27.13;;;;;;;;;;5013221;28;20472;-76
2023/12/12 01:29:57;;;;;;;27.00;25.20;;;;;;;;;;5013024;28;20492;-74
2023/12/12 01:32:24;;;;;;;26.80;24.90;;;;;;;;;;5012320;28;20448;-75
2023/12/12 01:34:51;;;;;;;28.87;26.30;;;;;;;;;;5013310;28;20531;-75
2023/12/12 01:37:19;;;;;;;29.00;26.90;;;;;;;;;;5013305;28;20527;-75
2023/12/12 01:39:46;;;;;;;29.47;27.27;;;;;;;;;;5012963;28;20448;-75
2023/12/12 01:42:13;;;;;;;29.60;27.50;;;;;;;;;;5012324;28;20526;-74
2023/12/12 01:44:40;;;;;;;31.53;27.73;;;;;;;;;;5012821;28;20440;-74
2023/12/12 01:47:07;;;;;;;30.00;27.40;;;;;;;;;;5012669;28;20499;-75
2023/12/12 01:49:34;;;;;;;28.70;26.60;;;;;;;;;;5013112;28;20448;-75
2023/12/12 01:52:01;;;;;;;31.13;28.40;;;;;;;;;;5011712;28;20445;-75
2023/12/12 01:54:31;;;;;;;30.27;27.43;;;;;;;;;;5012474;28;20499;-74
2023/12/12 01:56:58;;;;;;;31.10;28.13;;;;;;;;;;5012551;28;20461;-75
2023/12/12 01:59:25;;;;;;;31.60;29.37;;;;;;;;;;5012906;28;20447;-74
2023/12/12 02:01:53;;;;;;;31.13;28.70;;;;;;;;;;5012013;28;20574;-75
2023/12/12 02:04:20;;;;;;;32.33;29.40;;;;;;;;;;5012866;28;20502;-74
2023/12/12 02:06:48;;;;;;;31.20;28.53;;;;;;;;;;5012341;28;20468;-77
2023/12/12 02:09:16;;;;;;;29.53;27.13;;;;;;;;;;5012376;28;20499;-75
2023/12/12 02:11:44;;;;;;;29.73;27.63;;;;;;;;;;5012106;28;20449;-75
2023/12/12 02:14:11;;;;;;;34.03;30.73;;;;;;;;;;5012397;28;20487;-74
2023/12/12 02:16:38;;;;;;;33.03;30.43;;;;;;;;;;5012291;28;20511;-75
2023/12/12 02:19:06;;;;;;;33.70;31.10;;;;;;;;;;5012165;28;20875;-75
2023/12/12 02:21:34;;;;;;;33.90;31.10;;;;;;;;;;5011388;28;20488;-75
2023/12/12 02:24:01;;;;;;;34.50;31.60;;;;;;;;;;5011917;28;20499;-75
2023/12/12 02:26:28;;;;;;;35.77;32.07;;;;;;;;;;5011657;28;20468;-75
2023/12/12 02:28:55;;;;;;;34.13;31.27;;;;;;;;;;5011867;28;20538;-75
2023/12/12 02:31:22;;;;;;;35.03;31.83;;;;;;;;;;5011754;28;20452;-75
2023/12/12 02:33:49;;;;;;;34.13;31.33;;;;;;;;;;5012092;28;20445;-75
2023/12/12 02:36:16;;;;;;;34.03;31.07;;;;;;;;;;5012041;28;20469;-74
2023/12/12 02:38:44;;;;;;;34.27;31.60;;;;;;;;;;5011810;28;20444;-74
2023/12/12 02:41:11;;;;;;;50.93;47.37;;;;;;;;;;5011207;28;20574;-75
2023/12/12 02:43:38;;;;;;;66.20;61.80;;;;;;;;;;5011733;28;20449;-74
2023/12/12 02:46:06;;;;;;;65.80;61.70;;;;;;;;;;5011474;28;20471;-75
2023/12/12 02:48:33;;;;;;;64.87;60.00;;;;;;;;;;5011765;28;20547;-75
2023/12/12 02:51:00;;;;;;;64.93;60.23;;;;;;;;;;5010850;28;20448;-76
2023/12/12 02:53:27;;;;;;;64.70;60.80;;;;;;;;;;5011418;28;20444;-75
2023/12/12 02:55:55;;;;;;;64.03;59.87;;;;;;;;;;5011570;28;20476;-75
2023/12/12 02:58:22;;;;;;;61.60;57.70;;;;;;;;;;5011444;28;20464;-74
2023/12/12 03:00:49;;;;;;;66.00;62.07;;;;;;;;;;5010829;28;20484;-75
2023/12/12 03:03:16;;;;;;;63.07;58.57;;;;;;;;;;5011428;28;20531;-76
2023/12/12 03:05:43;;;;;;;60.03;56.73;;;;;;;;;;5011547;28;20507;-75
2023/12/12 03:08:10;;;;;;;63.63;59.93;;;;;;;;;;5011176;28;20510;-74
2023/12/12 03:10:37;;;;;;;70.17;65.83;;;;;;;;;;5010857;28;20494;-75
2023/12/12 03:13:05;;;;;;;67.30;63.13;;;;;;;;;;5011564;28;20498;-74
2023/12/12 03:15:32;;;;;;;63.20;59.30;;;;;;;;;;5011410;28;20499;-74
2023/12/12 03:17:59;;;;;;;61.93;58.53;;;;;;;;;;5011564;28;20464;-75
2023/12/12 03:20:26;;;;;;;63.97;59.50;;;;;;;;;;5011080;28;20445;-76
2023/12/12 03:22:53;;;;;;;71.10;65.90;;;;;;;;;;5010935;28;20444;-75
2023/12/12 03:25:20;;;;;;;69.87;65.37;;;;;;;;;;5011162;28;21278;-77
2023/12/12 03:27:47;;;;;;;75.93;69.97;;;;;;;;;;5010963;28;20980;-75
2023/12/12 03:30:15;;;;;;;73.73;69.10;;;;;;;;;;5011138;28;20940;-76
2023/12/12 03:32:42;;;;;;;78.27;73.13;;;;;;;;;;5010683;28;20502;-76
2023/12/12 03:35:09;;;;;;;78.57;73.30;;;;;;;;;;5010723;28;20448;-74
2023/12/12 03:37:36;;;;;;;80.47;75.20;;;;;;;;;;5010648;28;20465;-75
2023/12/12 03:40:03;;;;;;;84.73;79.80;;;;;;;;;;5011099;28;20495;-74
2023/12/12 03:42:30;;;;;;;79.20;74.30;;;;;;;;;;5010234;28;20847;-75
2023/12/12 03:44:57;;;;;;;80.70;75.85;;;;;;;;;;5010581;28;20835;-78
2023/12/12 03:47:26;;;;;;;83.10;77.80;;;;;;;;;;5010051;28;20327;-75
2023/12/12 03:49:52;;;;;;;84.03;79.13;;;;;;;;;;5010731;28;20448;-74
2023/12/12 03:52:19;;;;;;;79.27;74.17;;;;;;;;;;5010600;28;20440;-75
2023/12/12 03:54:46;;;;;;;84.10;78.30;;;;;;;;;;5013524;28;20452;-76
2023/12/12 03:57:13;;;;;;;81.67;76.07;;;;;;;;;;5014666;28;20548;-75
2023/12/12 03:59:41;;;;;;;84.27;78.97;;;;;;;;;;5014443;28;20510;-74
2023/12/12 04:02:08;;;;;;;81.80;76.43;;;;;;;;;;5013667;28;20983;-74
2023/12/12 04:04:36;;;;;;;83.50;77.73;;;;;;;;;;5014955;28;20456;-76
2023/12/12 04:07:04;;;;;;;84.17;79.23;;;;;;;;;;5014804;28;20453;-76
2023/12/12 04:09:31;;;;;;;88.10;82.30;;;;;;;;;;5015086;28;20486;-75
2023/12/12 04:11:58;;;;;;;82.47;77.33;;;;;;;;;;5014199;28;20904;-75
2023/12/12 04:14:25;;;;;;;85.17;78.97;;;;;;;;;;5014254;28;20987;-75
2023/12/12 04:16:52;;;;;;;86.20;80.17;;;;;;;;;;5014455;28;20987;-75
2023/12/12 04:19:19;;;;;;;83.97;78.30;;;;;;;;;;5014367;28;20518;-75
2023/12/12 04:21:47;;;;;;;87.17;81.77;;;;;;;;;;5013832;28;20554;-75
2023/12/12 04:24:14;;;;;;;91.43;85.80;;;;;;;;;;5014432;28;20857;-75
2023/12/12 04:26:41;;;;;;;88.03;82.37;;;;;;;;;;5013923;28;20443;-76
2023/12/12 04:29:08;;;;;;;84.93;79.17;;;;;;;;;;5014352;28;20452;-76
2023/12/12 04:31:36;;;;;;;90.77;85.23;;;;;;;;;;5013773;28;20433;-74
2023/12/12 04:34:03;;;;;;;91.57;84.67;;;;;;;;;;5014204;28;20442;-75
2023/12/12 04:36:30;;;;;;;85.73;80.43;;;;;;;;;;5014147;28;20503;-76
2023/12/12 04:38:58;;;;;;;86.43;80.23;;;;;;;;;;5013872;28;20450;-74
2023/12/12 04:41:25;;;;;;;93.63;87.13;;;;;;;;;;5013542;28;20593;-74
2023/12/12 04:43:52;;;;;;;92.67;86.13;;;;;;;;;;5014198;28;20466;-74
2023/12/12 04:46:20;;;;;;;85.20;79.80;;;;;;;;;;5014098;28;20460;-74
2023/12/12 04:48:47;;;;;;;87.23;81.03;;;;;;;;;;5014345;28;20463;-74
2023/12/12 04:51:14;;;;;;;89.77;83.07;;;;;;;;;;5013416;28;20809;-75
2023/12/12 04:53:41;;;;;;;92.53;85.80;;;;;;;;;;5014087;28;21133;-75
2023/12/12 04:56:10;;;;;;;86.87;80.57;;;;;;;;;;5013652;28;20468;-76
2023/12/12 04:58:37;;;;;;;89.40;83.50;;;;;;;;;;5013956;28;20453;-74
2023/12/12 05:01:04;;;;;;;88.17;82.60;;;;;;;;;;5013092;28;20484;-75
2023/12/12 05:03:32;;;;;;;84.20;78.13;;;;;;;;;;5013945;28;20494;-74
2023/12/12 05:06:00;;;;;;;84.97;79.30;;;;;;;;;;5012126;28;20477;-76
2023/12/12 05:08:27;;;;;;;78.57;73.37;;;;;;;;;;5013369;28;20816;-75
2023/12/12 05:10:54;;;;;;;82.77;77.17;;;;;;;;;;5012848;28;20445;-75
2023/12/12 05:13:22;;;;;;;81.53;76.13;;;;;;;;;;5013383;28;20448;-75
2023/12/12 05:15:49;;;;;;;84.67;78.77;;;;;;;;;;5013423;28;20460;-75
2023/12/12 05:18:16;;;;;;;80.07;74.47;;;;;;;;;;5013097;28;20941;-74
2023/12/12 05:20:43;;;;;;;80.03;74.03;;;;;;;;;;5012489;28;21160;-75
2023/12/12 05:23:11;;;;;;;78.50;73.50;;;;;;;;;;5013074;28;20996;-74
2023/12/12 05:25:37;;;;;;;80.33;75.00;;;;;;;;;;5013243;28;20511;-75
2023/12/12 05:28:04;;;;;;;75.70;70.13;;;;;;;;;;5013127;28;20452;-76
2023/12/12 05:30:34;;;;;;;80.30;74.00;;;;;;;;;;5012861;28;20465;-75
2023/12/12 05:33:01;;;;;;;80.77;74.73;;;;;;;;;;5013490;28;20453;-76
2023/12/12 05:35:27;;;;;;;81.27;75.10;;;;;;;;;;5013005;28;20453;-74
2023/12/12 05:37:54;;;;;;;84.03;77.63;;;;;;;;;;5012953;28;20976;-75
2023/12/12 05:40:21;;;;;;;81.83;75.40;;;;;;;;;;5012633;28;20983;-76
2023/12/12 05:42:48;;;;;;;84.93;78.60;;;;;;;;;;5011732;28;20494;-76
2023/12/12 05:45:15;;;;;;;87.23;79.70;;;;;;;;;;5012876;28;20452;-75
2023/12/12 05:47:45;;;;;;;90.10;82.57;;;;;;;;;;5012649;28;20442;-75
2023/12/12 05:50:12;;;;;;;87.40;79.33;;;;;;;;;;5012615;28;20453;-75
2023/12/12 05:52:39;;;;;;;85.50;77.57;;;;;;;;;;5012297;28;20444;-76
2023/12/12 05:55:06;;;;;;;86.67;79.57;;;;;;;;;;5012329;28;20437;-74
2023/12/12 05:57:33;;;;;;;84.83;77.67;;;;;;;;;;5012888;28;20878;-75
2023/12/12 06:00:00;;;;;;;84.23;78.07;;;;;;;;;;5012723;28;20452;-75
2023/12/12 06:02:28;;;;;;;90.60;82.60;;;;;;;;;;5011779;28;20492;-74
2023/12/12 06:04:57;;;;;;;93.60;85.53;;;;;;;;;;5012623;28;20827;-74
2023/12/12 06:07:24;;;;;;;92.10;83.90;;;;;;;;;;5012321;28;20952;-76
2023/12/12 06:09:51;;;;;;;90.13;83.33;;;;;;;;;;5013344;28;20441;-74
2023/12/12 06:12:18;;;;;;;89.03;82.10;;;;;;;;;;5011859;28;20479;-75
2023/12/12 06:14:45;;;;;;;97.63;88.73;;;;;;;;;;5012050;28;20495;-75
2023/12/12 06:17:12;;;;;;;97.13;88.17;;;;;;;;;;5011672;28;20460;-76
2023/12/12 06:19:39;;;;;;;91.97;83.77;;;;;;;;;;5012229;28;20459;-76
2023/12/12 06:22:08;;;;;;;92.63;83.20;;;;;;;;;;5011664;28;20541;-75
2023/12/12 06:24:35;;;;;;;90.73;82.93;;;;;;;;;;5012063;28;20445;-76
2023/12/12 06:27:02;;;;;;;91.13;83.60;;;;;;;;;;5003717;28;20477;-74
2023/12/12 06:29:29;;;;;;;94.23;86.10;;;;;;;;;;4999696;28;20461;-74
2023/12/12 06:31:56;;;;;;;98.43;90.47;;;;;;;;;;4991808;28;20441;-75
2023/12/12 06:34:23;;;;;;;99.37;90.23;;;;;;;;;;4992522;28;20453;-77
2023/12/12 06:36:49;;;;;;;97.50;88.90;;;;;;;;;;4992524;28;20531;-76
2023/12/12 06:39:18;;;;;;;94.93;86.30;;;;;;;;;;4992283;28;20508;-75
2023/12/12 06:41:45;;;;;;;96.30;87.80;;;;;;;;;;4991702;28;20551;-75
2023/12/12 06:44:12;;;;;;;94.63;86.50;;;;;;;;;;4992505;28;20499;-76
2023/12/12 06:46:39;;;;;;;95.70;87.40;;;;;;;;;;4991934;28;20489;-75
2023/12/12 06:49:06;;;;;;;93.53;85.53;;;;;;;;;;4991992;28;20446;-76
2023/12/12 06:51:33;;;;;;;93.53;85.37;;;;;;;;;;4991429;28;20449;-75
2023/12/12 06:54:00;;;;;;;87.03;79.47;;;;;;;;;;4991893;28;20442;-74
2023/12/12 06:56:29;;;;;;;89.37;82.13;;;;;;;;;;4992012;28;20477;-75
2023/12/12 06:58:57;;;;;;;89.23;81.83;;;;;;;;;;4992708;28;20599;-75
2023/12/12 07:01:24;;;;;;;91.20;82.47;;;;;;;;;;4996739;28;20481;-75
2023/12/12 07:03:51;;;;;;;92.47;83.97;;;;;;;;;;4991973;28;20488;-75
2023/12/12 07:06:18;;;;;;;88.43;80.90;;;;;;;;;;4991653;28;20465;-76
2023/12/12 07:08:45;;;;;;;88.03;81.03;;;;;;;;;;4991719;28;20472;-75
2023/12/12 07:11:12;;;;;;;93.63;86.40;;;;;;;;;;4991382;28;20445;-76
2023/12/12 07:13:41;;;;;;;88.13;81.03;;;;;;;;;;4991742;28;20798;-74
2023/12/12 07:16:10;;;;;;;84.87;78.07;;;;;;;;;;4991851;28;20448;-74
2023/12/12 07:18:37;;;;;;;86.67;80.20;;;;;;;;;;4991524;28;20465;-74
2023/12/12 07:21:04;;;;;;;85.67;78.40;;;;;;;;;;5001336;28;20827;-75
2023/12/12 07:23:31;;;;;;;89.07;81.30;;;;;;;;;;5010433;28;20531;-73
2023/12/12 07:25:59;;;;;;;85.77;78.87;;;;;;;;;;5010946;28;20522;-74
2023/12/12 07:28:26;;;;;;;86.73;80.10;;;;;;;;;;5011213;28;20444;-75
2023/12/12 07:30:54;;;;;;;83.97;77.37;;;;;;;;;;5011478;28;20460;-74
2023/12/12 07:33:21;;;;;;;82.90;76.53;;;;;;;;;;5011343;28;20491;-74
2023/12/12 07:35:48;;;;;;;83.27;77.27;;;;;;;;;;5011366;28;20598;-75
2023/12/12 07:38:16;;;;;;;82.40;76.17;;;;;;;;;;5010663;28;20448;-75
2023/12/12 07:40:43;;;;;;;84.43;78.30;;;;;;;;;;5010254;28;20514;-75
2023/12/12 07:43:10;;;;;;;84.40;78.03;;;;;;;;;;5010962;28;20486;-75
2023/12/12 07:45:37;;;;;;;88.93;82.67;;;;;;;;;;5010885;28;20453;-74
2023/12/12 07:48:06;;;;;;;88.73;82.10;;;;;;;;;;5011066;28;20495;-75
2023/12/12 07:50:33;;;;;;;85.53;79.10;;;;;;;;;;5010386;28;20510;-75
2023/12/12 07:53:00;;;;;;;85.83;78.67;;;;;;;;;;5010356;28;20449;-75
2023/12/12 07:55:27;;;;;;;84.33;78.23;;;;;;;;;;5010401;28;20456;-76
2023/12/12 07:57:54;;;;;;;91.53;84.57;;;;;;;;;;5011468;28;20476;-77
2023/12/12 08:00:21;;;;;;;87.90;81.57;;;;;;;;;;5010989;28;20814;-77
2023/12/12 08:02:48;;;;;;;84.97;78.50;;;;;;;;;;5010696;28;20590;-77
2023/12/12 08:05:17;;;;;;;83.90;78.03;;;;;;;;;;5011079;28;20424;-76
2023/12/12 08:07:44;;;;;;;84.07;77.17;;;;;;;;;;5010661;28;20984;-76
2023/12/12 08:10:11;;;;;;;80.47;74.83;;;;;;;;;;5011124;28;20826;-77
2023/12/12 08:12:38;;;;;;;80.43;74.30;;;;;;;;;;5001403;28;20477;-77
2023/12/12 08:15:05;;;;;;;81.10;74.63;;;;;;;;;;5002328;28;20478;-81
2023/12/12 08:17:32;;;;;;;77.57;71.40;;;;;;;;;;5013941;28;20480;-81
2023/12/12 08:19:59;;;;;;;81.13;74.47;;;;;;;;;;4997888;28;20481;-80
2023/12/12 08:22:28;;;;;;;80.37;74.23;;;;;;;;;;4997575;28;20511;-83
2023/12/12 08:24:55;;;;;;;80.80;75.30;;;;;;;;;;4997751;28;20461;-80
2023/12/12 08:27:23;;;;;;;78.77;72.77;;;;;;;;;;4993948;28;20466;-76
2023/12/12 08:29:50;;;;;;;78.87;73.50;;;;;;;;;;4997604;28;20842;-80
2023/12/12 08:32:17;;;;;;;76.93;70.77;;;;;;;;;;4997175;28;20446;-82
2023/12/12 08:34:44;;;;;;;75.97;70.43;;;;;;;;;;4995705;28;20491;-81
2023/12/12 08:37:11;;;;;;;76.67;71.23;;;;;;;;;;4995881;28;20873;-79
2023/12/12 08:39:39;;;;;;;79.97;74.00;;;;;;;;;;4997439;28;20460;-82
2023/12/12 08:42:06;;;;;;;80.87;74.87;;;;;;;;;;4998758;28;20469;-82
2023/12/12 08:44:33;;;;;;;76.70;71.17;;;;;;;;;;4998606;28;20445;-79
2023/12/12 08:47:00;;;;;;;78.37;73.13;;;;;;;;;;5000255;28;20504;-83
2023/12/12 08:49:27;;;;;;;78.43;72.77;;;;;;;;;;5003636;28;20446;-73
2023/12/12 08:51:54;;;;;;;76.47;71.20;;;;;;;;;;4996104;28;20457;-78
2023/12/12 08:54:21;;;;;;;76.47;71.27;;;;;;;;;;5013499;28;20476;-75
2023/12/12 08:56:52;;;;;;;82.10;76.70;;;;;;;;;;5013966;28;20472;-75
2023/12/12 08:59:21;;;;;;;76.60;71.13;;;;;;;;;;5014260;28;20779;-76
2023/12/12 09:01:48;;;;;;;78.50;73.10;;;;;;;;;;5012562;28;20464;-76
2023/12/12 09:04:16;;;;;;;80.77;74.83;;;;;;;;;;4994528;28;20492;-76
2023/12/12 09:06:44;;;;;;;79.13;73.63;;;;;;;;;;4994645;28;20498;-76
2023/12/12 09:09:11;;;;;;;78.77;72.47;;;;;;;;;;4994895;28;20504;-75
2023/12/12 09:11:38;;;;;;;79.20;73.93;;;;;;;;;;4993720;28;20445;-75
2023/12/12 09:14:06;;;;;;;80.10;74.57;;;;;;;;;;5012559;28;20463;-77
2023/12/12 09:16:34;;;;;;;79.67;74.00;;;;;;;;;;5013763;28;20460;-75
2023/12/12 09:19:01;;;;;;;76.70;71.50;;;;;;;;;;5013640;28;20519;-76
2023/12/12 09:21:28;;;;;;;72.97;67.60;;;;;;;;;;5013026;28;20453;-76
2023/12/12 09:23:55;;;;;;;73.93;68.80;;;;;;;;;;5013565;28;20459;-76
2023/12/12 09:26:22;;;;;;;71.63;66.90;;;;;;;;;;5013747;28;20469;-82
2023/12/12 09:28:49;;;;;;;74.10;69.50;;;;;;;;;;4996346;28;20499;-81
2023/12/12 09:31:25;;;;;;;72.30;67.67;;;;;;;;;;5001683;28;20769;-79
2023/12/12 09:33:52;;;;;;;69.90;65.23;;;;;;;;;;5014985;28;20892;-82
2023/12/12 09:36:19;;;;;;;73.03;67.87;;;;;;;;;;5000819;28;20916;-83
2023/12/12 09:38:46;;;;;;;68.03;63.80;;;;;;;;;;4999064;28;20475;-78
2023/12/12 09:41:17;;;;;;;65.33;60.77;;;;;;;;;;4996904;28;20886;-80
2023/12/12 09:43:45;;;;;;;67.77;62.93;;;;;;;;;;5008361;28;20855;-80
2023/12/12 09:46:13;;;;;;;64.63;60.43;;;;;;;;;;5016491;28;20447;-79
2023/12/12 09:48:42;;;;;;;64.00;59.50;;;;;;;;;;5015512;28;20431;-87
2023/12/12 09:51:09;;;;;;;58.50;54.40;;;;;;;;;;5013229;28;20423;-77
2023/12/12 09:53:36;;;;;;;58.97;55.33;;;;;;;;;;5003045;28;20511;-84
2023/12/12 09:56:04;;;;;;;59.70;55.37;;;;;;;;;;4997016;28;20508;-79
2023/12/12 09:58:31;;;;;;;57.20;53.13;;;;;;;;;;5010127;28;20858;-79
2023/12/12 10:00:59;;;;;;;54.23;50.40;;;;;;;;;;5015904;28;20984;-79
2023/12/12 10:03:26;;;;;;;57.00;53.70;;;;;;;;;;5015931;28;20550;-79
2023/12/12 10:05:55;;;;;;;52.30;48.90;;;;;;;;;;5016424;28;20439;-80
2023/12/12 10:08:23;;;;;;;57.07;53.33;;;;;;;;;;5015969;28;20464;-78
2023/12/12 10:10:52;;;;;;;54.83;50.77;;;;;;;;;;5015266;28;20870;-79
2023/12/12 10:13:21;;;;;;;52.73;49.30;;;;;;;;;;5016575;28;20485;-80
2023/12/12 10:15:48;;;;;;;54.00;50.10;;;;;;;;;;5015920;28;20987;-80
2023/12/12 10:18:15;;;;;;;52.57;48.67;;;;;;;;;;5015572;28;21234;-79
2023/12/12 10:20:42;;;;;;;51.97;48.40;;;;;;;;;;5015518;28;20448;-80
2023/12/12 10:23:11;;;;;;;51.23;47.37;;;;;;;;;;5016189;28;20545;-80
2023/12/12 10:25:38;;;;;;;51.83;47.83;;;;;;;;;;5015952;28;20419;-80
2023/12/12 10:28:05;;;;;;;51.37;48.00;;;;;;;;;;5015905;28;20438;-80
2023/12/12 10:30:32;;;;;;;50.37;47.53;;;;;;;;;;5014927;28;20961;-79
2023/12/12 10:32:59;;;;;;;48.43;45.20;;;;;;;;;;5015675;28;20952;-79
2023/12/12 10:35:28;;;;;;;48.73;45.30;;;;;;;;;;5015863;28;20846;-81
2023/12/12 10:37:55;;;;;;;48.63;45.40;;;;;;;;;;5015428;28;20859;-79
2023/12/12 10:40:24;;;;;;;49.03;45.40;;;;;;;;;;5015156;28;20502;-79
2023/12/12 10:42:51;;;;;;;44.73;41.93;;;;;;;;;;5015223;28;20499;-79
2023/12/12 10:45:18;;;;;;;44.10;40.93;;;;;;;;;;5015497;28;20440;-78
2023/12/12 10:47:46;;;;;;;45.73;42.03;;;;;;;;;;4996731;28;20556;-79
2023/12/12 10:50:14;;;;;;;43.30;40.50;;;;;;;;;;4995597;28;21017;-79
2023/12/12 10:52:42;;;;;;;42.33;39.40;;;;;;;;;;4995221;28;20492;-79
2023/12/12 10:55:10;;;;;;;42.27;38.80;;;;;;;;;;4995689;28;20424;-79
2023/12/12 10:57:41;;;;;;;40.67;37.50;;;;;;;;;;4995948;28;20477;-80
2023/12/12 11:00:12;;;;;;;41.43;38.33;;;;;;;;;;4995682;28;20471;-80
2023/12/12 11:02:40;;;;;;;43.53;40.33;;;;;;;;;;4994690;28;20426;-79
2023/12/12 11:05:08;;;;;;;44.07;41.20;;;;;;;;;;4995591;28;20446;-78
2023/12/12 11:07:35;;;;;;;43.80;40.57;;;;;;;;;;4995190;28;20524;-80
2023/12/12 11:10:04;;;;;;;44.17;40.27;;;;;;;;;;4995762;28;20797;-80
2023/12/12 11:12:31;;;;;;;42.97;40.40;;;;;;;;;;4994998;28;20461;-78
2023/12/12 11:15:00;;;;;;;43.47;40.37;;;;;;;;;;4995135;28;20851;-79
2023/12/12 11:17:28;;;;;;;41.07;37.80;;;;;;;;;;4995044;28;20465;-80
2023/12/12 11:19:56;;;;;;;41.47;38.43;;;;;;;;;;4995042;28;20459;-78
2023/12/12 11:22:37;;;;;;;39.13;36.33;;;;;;;;;;4994989;28;20449;-79
2023/12/12 11:25:07;;;;;;;82.97;41.00;;;;;;;;;;4992204;28;20806;-79
2023/12/12 11:27:34;;;;;;;36.87;34.10;;;;;;;;;;4994520;28;20512;-79
2023/12/12 11:30:03;;;;;;;37.13;34.33;;;;;;;;;;4994661;28;20453;-78
2023/12/12 11:32:30;;;;;;;38.63;35.03;;;;;;;;;;5005596;28;20481;-79
2023/12/12 11:34:57;;;;;;;31.63;29.20;;;;;;;;;;5014870;28;20514;-80
2023/12/12 11:37:39;;;;;;;30.60;28.23;;;;;;;;;;5015024;28;20468;-80
2023/12/12 11:40:09;;;;;;;30.83;28.40;;;;;;;;;;5014271;28;20437;-80
2023/12/12 11:42:36;;;;;;;28.90;26.43;;;;;;;;;;5014151;28;20429;-78
2023/12/12 11:45:06;;;;;;;28.47;26.23;;;;;;;;;;5014130;28;20484;-79
2023/12/12 11:47:33;;;;;;;29.97;27.10;;;;;;;;;;5014096;28;20486;-80
2023/12/12 11:50:19;;;;;;;29.80;27.37;;;;;;;;;;5006352;28;20435;-80
2023/12/12 11:52:49;;;;;;;27.47;25.53;;;;;;;;;;4993999;28;20457;-80
2023/12/12 11:55:22;;;;;;;28.10;25.90;;;;;;;;;;4995309;28;20478;-78
2023/12/12 11:57:49;;;;;;;28.70;26.40;;;;;;;;;;4994926;28;20454;-78
2023/12/12 12:00:20;;;;;;;28.73;25.73;;;;;;;;;;4994621;28;20424;-79
2023/12/12 12:02:47;;;;;;;26.93;24.87;;;;;;;;;;4999446;28;20981;-80
2023/12/12 12:05:15;;;;;;;27.27;25.07;;;;;;;;;;4994362;28;20837;-80
2023/12/12 12:07:42;;;;;;;26.03;23.70;;;;;;;;;;4994769;28;20448;-78
2023/12/12 12:10:10;;;;;;;27.73;24.90;;;;;;;;;;4994552;28;20450;-79
2023/12/12 12:12:37;;;;;;;26.67;24.90;;;;;;;;;;4994307;28;20478;-80
2023/12/12 12:15:05;;;;;;;26.30;23.77;;;;;;;;;;4996116;28;20503;-80
2023/12/12 12:17:37;;;;;;;30.20;24.57;;;;;;;;;;4998070;28;20481;-80
2023/12/12 12:20:05;;;;;;;26.03;23.53;;;;;;;;;;4998428;28;20441;-81
2023/12/12 12:22:32;;;;;;;26.87;24.40;;;;;;;;;;4997298;28;20491;-79
2023/12/12 12:24:59;;;;;;;27.00;24.40;;;;;;;;;;4997919;28;20493;-79
2023/12/12 12:27:26;;;;;;;24.80;23.20;;;;;;;;;;4997438;28;21011;-79
2023/12/12 12:29:59;;;;;;;25.07;23.13;;;;;;;;;;5010787;28;20977;-80
2023/12/12 12:32:26;;;;;;;25.60;23.73;;;;;;;;;;5002621;28;20433;-78
2023/12/12 12:35:07;;;;;;;25.10;23.20;;;;;;;;;;4997221;28;20424;-78
2023/12/12 12:37:35;;;;;;;23.03;21.40;;;;;;;;;;4997157;28;20477;-78
2023/12/12 12:40:04;;;;;;;25.27;22.63;;;;;;;;;;4997359;28;20427;-79
2023/12/12 12:42:34;;;;;;;23.50;21.50;;;;;;;;;;4996905;28;20457;-79
2023/12/12 12:45:01;;;;;;;24.67;22.23;;;;;;;;;;4996931;28;20485;-79
2023/12/12 12:47:28;;;;;;;22.30;20.50;;;;;;;;;;4998813;28;20477;-82
2023/12/12 12:49:55;;;;;;;25.33;23.30;;;;;;;;;;5017664;28;20519;-81
2023/12/12 12:52:24;;;;;;;22.10;20.50;;;;;;;;;;5018147;28;20503;-79
2023/12/12 12:54:50;;;;;;;22.57;20.63;;;;;;;;;;5013830;28;20452;-79
2023/12/12 12:57:18;;;;;;;22.07;20.33;;;;;;;;;;5017455;28;20461;-81
2023/12/12 12:59:45;;;;;;;22.77;20.97;;;;;;;;;;5017205;28;20449;-78
2023/12/12 13:02:11;;;;;;;22.70;20.60;;;;;;;;;;5011224;28;20530;-80
2023/12/12 13:04:40;;;;;;;21.50;19.27;;;;;;;;;;4997852;28;20990;-80
2023/12/12 13:07:07;;;;;;;21.60;19.60;;;;;;;;;;4997457;28;20497;-79
2023/12/12 13:09:36;;;;;;;21.80;19.97;;;;;;;;;;4997960;28;20455;-78
2023/12/12 13:12:03;;;;;;;21.50;19.93;;;;;;;;;;4997340;28;20458;-80
2023/12/12 13:14:30;;;;;;;21.37;19.77;;;;;;;;;;4998575;28;20461;-80
2023/12/12 13:16:57;;;;;;;21.93;20.07;;;;;;;;;;4996877;28;20473;-79
2023/12/12 13:19:26;;;;;;;21.77;19.70;;;;;;;;;;4996482;28;20444;-79
2023/12/12 13:21:53;;;;;;;21.27;19.60;;;;;;;;;;4996326;28;20461;-78
2023/12/12 13:24:22;;;;;;;21.50;19.60;;;;;;;;;;4997348;28;20481;-78
2023/12/12 13:26:50;;;;;;;21.67;19.67;;;;;;;;;;4995119;28;20573;-79
2023/12/12 13:29:17;;;;;;;20.87;19.57;;;;;;;;;;4996562;28;20495;-79
2023/12/12 13:31:44;;;;;;;21.77;20.00;;;;;;;;;;4995793;28;21307;-78
2023/12/12 13:34:12;;;;;;;21.20;19.20;;;;;;;;;;4996144;28;20508;-80
2023/12/12 13:36:40;;;;;;;21.30;18.70;;;;;;;;;;4995904;28;20509;-78
2023/12/12 13:39:12;;;;;;;20.90;19.07;;;;;;;;;;4996302;28;20476;-79
2023/12/12 13:41:40;;;;;;;20.60;19.00;;;;;;;;;;4995256;28;20465;-78
2023/12/12 13:44:08;;;;;;;20.77;18.67;;;;;;;;;;4996075;28;20485;-79
2023/12/12 13:46:35;;;;;;;20.90;18.70;;;;;;;;;;4996017;28;20465;-80
2023/12/12 13:49:02;;;;;;;20.20;18.77;;;;;;;;;;4996272;28;20470;-78
2023/12/12 13:51:29;;;;;;;21.70;19.53;;;;;;;;;;4995487;28;20902;-78
2023/12/12 13:53:56;;;;;;;19.67;18.00;;;;;;;;;;4995844;28;20868;-79
2023/12/12 13:56:24;;;;;;;19.93;18.40;;;;;;;;;;5009174;28;20496;-78
2023/12/12 13:58:51;;;;;;;21.30;19.37;;;;;;;;;;5015412;28;20936;-80
2023/12/12 14:01:19;;;;;;;20.17;18.50;;;;;;;;;;5011164;28;20795;-79
2023/12/12 14:03:46;;;;;;;19.90;18.30;;;;;;;;;;4995343;28;20440;-80
2023/12/12 14:06:13;;;;;;;18.83;17.73;;;;;;;;;;4995531;28;20964;-79
2023/12/12 14:08:40;;;;;;;19.33;17.73;;;;;;;;;;4995343;28;20450;-78
2023/12/12 14:11:07;;;;;;;19.80;18.33;;;;;;;;;;5007151;28;20903;-84
2023/12/12 14:13:34;;;;;;;19.97;18.57;;;;;;;;;;5010903;28;20457;-85
2023/12/12 14:16:02;;;;;;;21.80;19.80;;;;;;;;;;5005339;28;20469;-84
2023/12/12 14:18:30;;;;;;;20.07;18.77;;;;;;;;;;5004780;28;20492;-85